createdAt,value
2018-05-09T00:00:33.719Z,0
2018-05-09T00:01:43.445Z,0
2018-05-09T00:02:53.420Z,0
2018-05-09T00:04:03.132Z,0
2018-05-09T00:05:13.097Z,0
2018-05-09T00:06:23.275Z,0
2018-05-09T00:07:33.238Z,0
2018-05-09T00:08:43.211Z,0
2018-05-09T00:09:53.185Z,0
2018-05-09T00:11:03.153Z,0
2018-05-09T00:12:13.112Z,0
2018-05-09T00:13:23.093Z,0
2018-05-09T00:14:33.065Z,0
2018-05-09T00:15:42.521Z,0
2018-05-09T00:16:52.504Z,0
2018-05-09T00:18:02.476Z,0
2018-05-09T00:19:12.454Z,0
2018-05-09T00:20:21.649Z,0
2018-05-09T00:21:31.365Z,0
2018-05-09T00:22:41.340Z,0
2018-05-09T00:23:51.304Z,0
2018-05-09T00:25:01.037Z,0
2018-05-09T00:26:10.248Z,0
2018-05-09T00:27:19.969Z,0
2018-05-09T00:28:30.177Z,0
2018-05-09T00:29:40.159Z,0
2018-05-09T00:30:50.127Z,0
2018-05-09T00:31:59.847Z,0
2018-05-09T00:33:09.826Z,0
2018-05-09T00:34:19.545Z,0
2018-05-09T00:35:29.510Z,0
2018-05-09T00:36:39.486Z,0
2018-05-09T00:37:49.465Z,0
2018-05-09T00:38:59.450Z,0
2018-05-09T00:40:09.446Z,0
2018-05-09T00:41:19.246Z,0
2018-05-09T00:42:29.221Z,0
2018-05-09T00:43:39.279Z,0
2018-05-09T00:44:49.253Z,0
2018-05-09T00:45:58.701Z,0
2018-05-09T00:47:08.148Z,0
2018-05-09T00:48:18.126Z,0
2018-05-09T00:49:28.113Z,0
2018-05-09T00:50:37.832Z,0
2018-05-09T00:51:47.857Z,0
2018-05-09T00:52:57.833Z,0
2018-05-09T00:54:07.285Z,0
2018-05-09T00:55:17.253Z,0
2018-05-09T00:56:27.235Z,0
2018-05-09T00:57:36.945Z,0
2018-05-09T00:58:46.956Z,0
2018-05-09T00:59:56.932Z,0
2018-05-09T01:01:06.668Z,0
2018-05-09T01:02:16.645Z,0
2018-05-09T01:03:26.622Z,0
2018-05-09T01:04:36.587Z,0
2018-05-09T01:05:46.564Z,0
2018-05-09T01:06:56.545Z,0
2018-05-09T01:08:06.596Z,0
2018-05-09T01:09:16.591Z,0
2018-05-09T01:10:26.579Z,0
2018-05-09T01:11:36.557Z,0
2018-05-09T01:12:46.024Z,0
2018-05-09T01:13:55.752Z,0
2018-05-09T01:15:05.711Z,0
2018-05-09T01:16:15.421Z,0
2018-05-09T01:17:25.142Z,0
2018-05-09T01:18:35.140Z,0
2018-05-09T01:19:45.104Z,0
2018-05-09T01:20:55.073Z,0
2018-05-09T01:22:05.151Z,0
2018-05-09T01:23:15.125Z,0
2018-05-09T01:24:25.098Z,0
2018-05-09T01:25:34.819Z,0
2018-05-09T01:26:44.524Z,0
2018-05-09T01:27:53.985Z,0
2018-05-09T01:29:03.981Z,0
2018-05-09T01:30:13.706Z,0
2018-05-09T01:31:23.700Z,0
2018-05-09T01:32:33.426Z,0
2018-05-09T01:33:43.396Z,0
2018-05-09T01:34:53.378Z,0
2018-05-09T01:36:03.353Z,0
2018-05-09T01:37:13.076Z,0
2018-05-09T01:38:23.060Z,0
2018-05-09T01:39:33.024Z,0
2018-05-09T01:40:43.005Z,0
2018-05-09T01:41:52.971Z,0
2018-05-09T01:43:02.959Z,0
2018-05-09T01:44:12.927Z,0
2018-05-09T01:45:22.958Z,0
2018-05-09T01:46:32.675Z,0
2018-05-09T01:47:42.722Z,0
2018-05-09T01:48:52.426Z,0
2018-05-09T01:50:02.397Z,0
2018-05-09T01:51:12.371Z,0
2018-05-09T01:52:22.585Z,0
2018-05-09T01:53:32.302Z,0
2018-05-09T01:54:42.285Z,0
2018-05-09T01:55:52.251Z,0
2018-05-09T01:57:02.234Z,0
2018-05-09T01:58:12.205Z,0
2018-05-09T01:59:22.185Z,0
2018-05-09T02:00:31.891Z,0
2018-05-09T02:01:41.874Z,0
2018-05-09T02:02:51.583Z,0
2018-05-09T02:04:01.559Z,0
2018-05-09T02:05:11.287Z,0
2018-05-09T02:06:21.494Z,0
2018-05-09T02:07:30.946Z,0
2018-05-09T02:08:40.932Z,0
2018-05-09T02:09:50.647Z,0
2018-05-09T02:11:00.360Z,0
2018-05-09T02:12:10.342Z,0
2018-05-09T02:13:20.133Z,0
2018-05-09T02:14:29.846Z,0
2018-05-09T02:15:39.557Z,0
2018-05-09T02:16:49.546Z,0
2018-05-09T02:17:59.514Z,0
2018-05-09T02:19:09.229Z,0
2018-05-09T02:20:19.199Z,0
2018-05-09T02:21:28.910Z,0
2018-05-09T02:22:38.618Z,0
2018-05-09T02:23:48.599Z,0
2018-05-09T02:24:58.569Z,0
2018-05-09T02:26:08.382Z,0
2018-05-09T02:27:18.096Z,0
2018-05-09T02:28:28.082Z,0
2018-05-09T02:29:37.790Z,0
2018-05-09T02:30:47.775Z,0
2018-05-09T02:31:57.758Z,0
2018-05-09T02:33:07.751Z,0
2018-05-09T02:34:17.469Z,0
2018-05-09T02:35:27.191Z,0
2018-05-09T02:36:37.166Z,0
2018-05-09T02:37:47.167Z,0
2018-05-09T02:38:56.877Z,0
2018-05-09T02:40:06.852Z,0
2018-05-09T02:41:16.834Z,0
2018-05-09T02:42:26.822Z,0
2018-05-09T02:43:36.909Z,0
2018-05-09T02:44:46.629Z,0
2018-05-09T02:45:56.600Z,0
2018-05-09T02:47:06.057Z,0
2018-05-09T02:48:16.044Z,0
2018-05-09T02:49:25.535Z,0
2018-05-09T02:50:34.994Z,0
2018-05-09T02:51:45.003Z,0
2018-05-09T02:52:54.981Z,0
2018-05-09T02:54:04.683Z,0
2018-05-09T02:55:14.415Z,0
2018-05-09T02:56:24.395Z,0
2018-05-09T02:57:34.383Z,0
2018-05-09T02:58:44.360Z,0
2018-05-09T02:59:54.139Z,0
2018-05-09T03:01:04.123Z,0
2018-05-09T03:02:13.846Z,0
2018-05-09T03:03:23.821Z,0
2018-05-09T03:04:34.094Z,0
2018-05-09T03:05:43.821Z,0
2018-05-09T03:06:53.821Z,0
2018-05-09T03:08:03.539Z,0
2018-05-09T03:09:13.265Z,0
2018-05-09T03:10:23.475Z,5
2018-05-09T03:11:33.186Z,5
2018-05-09T03:12:42.639Z,5
2018-05-09T03:13:52.610Z,5
2018-05-09T03:15:02.333Z,5
2018-05-09T03:16:12.039Z,5
2018-05-09T03:17:21.744Z,10
2018-05-09T03:18:31.706Z,10
2018-05-09T03:19:41.671Z,10
2018-05-09T03:20:51.381Z,10
2018-05-09T03:22:01.094Z,15
2018-05-09T03:23:11.129Z,15
2018-05-09T03:24:20.844Z,15
2018-05-09T03:25:30.562Z,20
2018-05-09T03:26:40.265Z,20
2018-05-09T03:27:49.726Z,20
2018-05-09T03:28:59.705Z,25
2018-05-09T03:30:09.682Z,25
2018-05-09T03:31:19.660Z,30
2018-05-09T03:32:29.116Z,30
2018-05-09T03:33:38.834Z,35
2018-05-09T03:34:48.813Z,35
2018-05-09T03:35:58.790Z,40
2018-05-09T03:37:08.519Z,40
2018-05-09T03:38:18.234Z,45
2018-05-09T03:39:28.215Z,45
2018-05-09T03:40:37.989Z,50
2018-05-09T03:41:47.393Z,50
2018-05-09T03:42:57.374Z,55
2018-05-09T03:44:07.108Z,55
2018-05-09T03:45:17.093Z,55
2018-05-09T03:46:27.066Z,60
2018-05-09T03:47:36.775Z,60
2018-05-09T03:48:46.751Z,65
2018-05-09T03:49:56.484Z,65
2018-05-09T03:51:06.466Z,70
2018-05-09T03:52:16.455Z,75
2018-05-09T03:53:26.474Z,75
2018-05-09T03:54:36.205Z,80
2018-05-09T03:55:45.937Z,80
2018-05-09T03:56:55.649Z,85
2018-05-09T03:58:05.615Z,85
2018-05-09T03:59:15.581Z,90
2018-05-09T04:00:25.548Z,90
2018-05-09T04:01:35.510Z,95
2018-05-09T04:02:45.483Z,95
2018-05-09T04:03:55.458Z,100
2018-05-09T04:05:05.430Z,100
2018-05-09T04:06:15.143Z,105
2018-05-09T04:07:24.590Z,105
2018-05-09T04:08:34.299Z,110
2018-05-09T04:09:44.416Z,115
2018-05-09T04:10:54.456Z,115
2018-05-09T04:12:04.183Z,120
2018-05-09T04:13:14.584Z,120
2018-05-09T04:14:24.377Z,125
2018-05-09T04:15:34.356Z,125
2018-05-09T04:16:44.353Z,130
2018-05-09T04:17:54.400Z,130
2018-05-09T04:19:04.128Z,130
2018-05-09T04:20:14.106Z,135
2018-05-09T04:21:24.076Z,135
2018-05-09T04:22:34.040Z,140
2018-05-09T04:23:43.766Z,140
2018-05-09T04:24:53.500Z,145
2018-05-09T04:26:03.223Z,145
2018-05-09T04:27:13.192Z,150
2018-05-09T04:28:22.970Z,150
2018-05-09T04:29:32.965Z,150
2018-05-09T04:30:42.969Z,155
2018-05-09T04:31:52.942Z,155
2018-05-09T04:33:02.421Z,155
2018-05-09T04:34:12.137Z,155
2018-05-09T04:35:22.101Z,160
2018-05-09T04:36:32.068Z,160
2018-05-09T04:37:42.044Z,165
2018-05-09T04:38:52.030Z,165
2018-05-09T04:40:01.735Z,165
2018-05-09T04:41:11.738Z,170
2018-05-09T04:42:21.458Z,170
2018-05-09T04:43:31.906Z,170
2018-05-09T04:44:41.993Z,175
2018-05-09T04:45:51.984Z,175
2018-05-09T04:47:01.968Z,180
2018-05-09T04:48:11.684Z,180
2018-05-09T04:49:21.927Z,180
2018-05-09T04:50:31.896Z,185
2018-05-09T04:51:41.350Z,185
2018-05-09T04:52:51.316Z,190
2018-05-09T04:54:01.289Z,190
2018-05-09T04:55:11.265Z,190
2018-05-09T04:56:21.235Z,195
2018-05-09T04:57:30.959Z,195
2018-05-09T04:58:40.668Z,195
2018-05-09T04:59:50.652Z,200
2018-05-09T05:01:00.623Z,200
2018-05-09T05:02:10.602Z,200
2018-05-09T05:03:20.589Z,205
2018-05-09T05:04:30.563Z,205
2018-05-09T05:05:40.269Z,205
2018-05-09T05:06:50.241Z,210
2018-05-09T05:08:00.220Z,210
2018-05-09T05:09:10.195Z,210
2018-05-09T05:10:19.917Z,215
2018-05-09T05:11:29.946Z,215
2018-05-09T05:12:39.665Z,215
2018-05-09T05:13:49.130Z,220
2018-05-09T05:14:59.105Z,220
2018-05-09T05:16:09.076Z,220
2018-05-09T05:17:19.064Z,220
2018-05-09T05:18:28.781Z,225
2018-05-09T05:19:38.503Z,225
2018-05-09T05:20:48.477Z,225
2018-05-09T05:21:58.456Z,225
2018-05-09T05:23:08.164Z,230
2018-05-09T05:24:17.904Z,230
2018-05-09T05:25:27.641Z,230
2018-05-09T05:26:36.842Z,235
2018-05-09T05:27:46.815Z,235
2018-05-09T05:28:56.531Z,235
2018-05-09T05:30:06.517Z,240
2018-05-09T05:31:16.237Z,240
2018-05-09T05:32:26.207Z,240
2018-05-09T05:33:36.175Z,240
2018-05-09T05:34:46.157Z,240
2018-05-09T05:35:55.891Z,245
2018-05-09T05:37:05.914Z,245
2018-05-09T05:38:15.941Z,245
2018-05-09T05:39:25.958Z,245
2018-05-09T05:40:35.681Z,250
2018-05-09T05:41:45.411Z,250
2018-05-09T05:42:55.128Z,250
2018-05-09T05:44:04.835Z,250
2018-05-09T05:45:15.661Z,255
2018-05-09T05:46:25.515Z,255
2018-05-09T05:47:35.262Z,255
2018-05-09T05:48:45.248Z,260
2018-05-09T05:49:54.990Z,260
2018-05-09T05:51:04.746Z,260
2018-05-09T05:52:14.748Z,260
2018-05-09T05:53:24.768Z,265
2018-05-09T05:54:34.851Z,265
2018-05-09T05:55:44.940Z,265
2018-05-09T05:56:54.765Z,265
2018-05-09T05:58:04.859Z,270
2018-05-09T05:59:14.409Z,270
2018-05-09T06:00:24.244Z,270
2018-05-09T06:01:33.984Z,275
2018-05-09T06:02:43.980Z,275
2018-05-09T06:03:53.959Z,275
2018-05-09T06:05:03.952Z,275
2018-05-09T06:06:13.693Z,275
2018-05-09T06:07:23.673Z,280
2018-05-09T06:08:33.649Z,280
2018-05-09T06:09:43.630Z,280
2018-05-09T06:10:53.632Z,280
2018-05-09T06:12:03.644Z,285
2018-05-09T06:13:13.659Z,285
2018-05-09T06:14:23.731Z,285
2018-05-09T06:15:33.748Z,285
2018-05-09T06:16:43.542Z,285
2018-05-09T06:17:53.542Z,290
2018-05-09T06:19:03.558Z,290
2018-05-09T06:20:13.561Z,290
2018-05-09T06:21:23.313Z,290
2018-05-09T06:22:33.308Z,295
2018-05-09T06:23:43.071Z,295
2018-05-09T06:24:53.113Z,300
2018-05-09T06:26:03.116Z,300
2018-05-09T06:27:13.131Z,300
2018-05-09T06:28:23.127Z,305
2018-05-09T06:29:32.872Z,305
2018-05-09T06:30:42.609Z,310
2018-05-09T06:31:52.710Z,305
2018-05-09T06:33:02.452Z,305
2018-05-09T06:34:12.465Z,310
2018-05-09T06:35:22.466Z,315
2018-05-09T06:36:32.184Z,310
2018-05-09T06:37:42.383Z,315
2018-05-09T06:38:52.358Z,315
2018-05-09T06:40:02.358Z,315
2018-05-09T06:41:12.570Z,315
2018-05-09T06:42:22.565Z,320
2018-05-09T06:43:32.356Z,320
2018-05-09T06:44:42.340Z,320
2018-05-09T06:45:51.805Z,320
2018-05-09T06:47:01.812Z,325
2018-05-09T06:48:11.800Z,325
2018-05-09T06:49:21.255Z,325
2018-05-09T06:50:31.243Z,325
2018-05-09T06:51:40.988Z,325
2018-05-09T06:52:50.439Z,330
2018-05-09T06:54:00.426Z,330
2018-05-09T06:55:09.903Z,330
2018-05-09T06:56:19.885Z,330
2018-05-09T06:57:29.604Z,330
2018-05-09T06:58:39.589Z,330
2018-05-09T06:59:49.638Z,335
2018-05-09T07:00:59.717Z,335
2018-05-09T07:02:09.529Z,335
2018-05-09T07:03:19.501Z,335
2018-05-09T07:04:29.488Z,335
2018-05-09T07:05:39.215Z,340
2018-05-09T07:06:49.792Z,340
2018-05-09T07:07:59.801Z,340
2018-05-09T07:09:09.799Z,340
2018-05-09T07:10:19.526Z,345
2018-05-09T07:11:29.750Z,345
2018-05-09T07:12:40.127Z,345
2018-05-09T07:13:50.139Z,345
2018-05-09T07:15:00.107Z,350
2018-05-09T07:16:10.089Z,350
2018-05-09T07:17:20.073Z,355
2018-05-09T07:18:30.082Z,350
2018-05-09T07:19:39.814Z,350
2018-05-09T07:20:49.792Z,355
2018-05-09T07:21:59.763Z,355
2018-05-09T07:23:09.910Z,355
2018-05-09T07:24:19.932Z,355
2018-05-09T07:25:29.916Z,360
2018-05-09T07:26:39.908Z,360
2018-05-09T07:27:49.628Z,360
2018-05-09T07:28:59.357Z,365
2018-05-09T07:30:09.356Z,365
2018-05-09T07:31:19.358Z,365
2018-05-09T07:32:29.144Z,370
2018-05-09T07:33:39.227Z,370
2018-05-09T07:34:48.425Z,370
2018-05-09T07:35:58.633Z,375
2018-05-09T07:37:08.632Z,375
2018-05-09T07:38:18.843Z,375
2018-05-09T07:39:28.812Z,375
2018-05-09T07:40:38.794Z,375
2018-05-09T07:41:48.793Z,375
2018-05-09T07:42:58.785Z,375
2018-05-09T07:44:08.244Z,380
2018-05-09T07:45:18.233Z,380
2018-05-09T07:46:27.964Z,380
2018-05-09T07:47:37.946Z,385
2018-05-09T07:48:47.985Z,385
2018-05-09T07:49:57.970Z,385
2018-05-09T07:51:07.960Z,390
2018-05-09T07:52:17.943Z,390
2018-05-09T07:53:27.627Z,390
2018-05-09T07:54:37.388Z,395
2018-05-09T07:55:47.364Z,395
2018-05-09T07:56:57.597Z,395
2018-05-09T07:58:07.600Z,395
2018-05-09T07:59:17.610Z,400
2018-05-09T08:00:27.634Z,400
2018-05-09T08:01:37.639Z,410
2018-05-09T08:02:47.645Z,405
2018-05-09T08:03:57.653Z,405
2018-05-09T08:05:07.396Z,410
2018-05-09T08:06:17.517Z,410
2018-05-09T08:07:27.250Z,410
2018-05-09T08:08:36.987Z,415
2018-05-09T08:09:46.705Z,415
2018-05-09T08:10:56.696Z,420
2018-05-09T08:12:06.739Z,420
2018-05-09T08:13:16.763Z,420
2018-05-09T08:14:26.748Z,425
2018-05-09T08:15:36.469Z,425
2018-05-09T08:16:46.449Z,430
2018-05-09T08:17:56.448Z,430
2018-05-09T08:19:06.442Z,435
2018-05-09T08:20:16.434Z,435
2018-05-09T08:21:26.446Z,440
2018-05-09T08:22:36.441Z,445
2018-05-09T08:23:46.306Z,460
2018-05-09T08:24:56.327Z,850
2018-05-09T08:26:06.353Z,1120
2018-05-09T08:27:16.351Z,1085
2018-05-09T08:28:26.333Z,1100
2018-05-09T08:29:36.326Z,1045
2018-05-09T08:30:46.051Z,1100
2018-05-09T08:31:55.500Z,1145
2018-05-09T08:33:05.539Z,1050
2018-05-09T08:34:15.537Z,1115
2018-05-09T08:35:25.609Z,1145
2018-05-09T08:36:35.696Z,1215
2018-05-09T08:37:45.704Z,1315
2018-05-09T08:38:55.489Z,1290
2018-05-09T08:40:05.487Z,1215
2018-05-09T08:41:15.472Z,1290
2018-05-09T08:42:25.220Z,1330
2018-05-09T08:43:35.871Z,1305
2018-05-09T08:44:45.717Z,1330
2018-05-09T08:45:55.471Z,1345
2018-05-09T08:47:05.464Z,1340
2018-05-09T08:48:15.292Z,1415
2018-05-09T08:49:25.748Z,1455
2018-05-09T08:50:35.873Z,1410
2018-05-09T08:51:45.619Z,1485
2018-05-09T08:52:55.929Z,1430
2018-05-09T08:54:05.956Z,1440
2018-05-09T08:55:15.987Z,1480
2018-05-09T08:56:26.226Z,1480
2018-05-09T08:57:36.203Z,1425
2018-05-09T08:58:46.460Z,1510
2018-05-09T08:59:56.320Z,1425
2018-05-09T09:01:06.327Z,1380
2018-05-09T09:02:16.071Z,1550
2018-05-09T09:03:26.080Z,1565
2018-05-09T09:04:36.571Z,1455
2018-05-09T09:05:46.574Z,1625
2018-05-09T09:06:56.313Z,1695
2018-05-09T09:08:06.313Z,1595
2018-05-09T09:09:16.323Z,1525
2018-05-09T09:10:26.335Z,1610
2018-05-09T09:11:36.344Z,1650
2018-05-09T09:12:46.063Z,1605
2018-05-09T09:13:55.796Z,1685
2018-05-09T09:15:05.280Z,1700
2018-05-09T09:16:15.035Z,1665
2018-05-09T09:17:24.825Z,1610
2018-05-09T09:18:34.938Z,1560
2018-05-09T09:19:45.035Z,1550
2018-05-09T09:20:55.378Z,1585
2018-05-09T09:22:05.376Z,1725
2018-05-09T09:23:15.366Z,1745
2018-05-09T09:24:25.120Z,1655
2018-05-09T09:25:34.857Z,1785
2018-05-09T09:26:44.593Z,1745
2018-05-09T09:27:54.584Z,1775
2018-05-09T09:29:04.625Z,1990
2018-05-09T09:30:14.383Z,1835
2018-05-09T09:31:24.368Z,1820
2018-05-09T09:32:34.382Z,1915
2018-05-09T09:33:44.118Z,1875
2018-05-09T09:34:54.119Z,1945
2018-05-09T09:36:04.128Z,1935
2018-05-09T09:37:14.131Z,1900
2018-05-09T09:38:24.170Z,1705
2018-05-09T09:39:34.203Z,1580
2018-05-09T09:40:44.209Z,1735
2018-05-09T09:41:54.248Z,2020
2018-05-09T09:43:04.258Z,2090
2018-05-09T09:44:14.019Z,1875
2018-05-09T09:45:23.828Z,1860
2018-05-09T09:46:33.849Z,1980
2018-05-09T09:47:43.850Z,2090
2018-05-09T09:48:53.891Z,2110
2018-05-09T09:50:03.644Z,2140
2018-05-09T09:51:13.883Z,2135
2018-05-09T09:52:23.887Z,1940
2018-05-09T09:53:33.888Z,1800
2018-05-09T09:54:43.901Z,1990
2018-05-09T09:55:53.915Z,2100
2018-05-09T09:57:03.934Z,2080
2018-05-09T09:58:13.957Z,2280
2018-05-09T09:59:23.976Z,2345
2018-05-09T10:00:33.725Z,2255
2018-05-09T10:01:44.101Z,2120
2018-05-09T10:02:54.094Z,2130
2018-05-09T10:04:04.096Z,2155
2018-05-09T10:05:14.111Z,2180
2018-05-09T10:06:24.114Z,2125
2018-05-09T10:07:34.117Z,2060
2018-05-09T10:08:43.852Z,2245
2018-05-09T10:09:53.595Z,2770
2018-05-09T10:11:03.620Z,2615
2018-05-09T10:12:13.637Z,2325
2018-05-09T10:13:23.410Z,2195
2018-05-09T10:14:33.418Z,2135
2018-05-09T10:15:43.467Z,2225
2018-05-09T10:16:53.504Z,2345
2018-05-09T10:18:03.253Z,2395
2018-05-09T10:19:13.246Z,2380
2018-05-09T10:20:23.262Z,2360
2018-05-09T10:21:33.015Z,2150
2018-05-09T10:22:42.493Z,2050
2018-05-09T10:23:52.510Z,2170
2018-05-09T10:25:02.546Z,2265
2018-05-09T10:26:12.537Z,1800
2018-05-09T10:27:22.542Z,1605
2018-05-09T10:28:32.590Z,1960
2018-05-09T10:29:42.372Z,2445
2018-05-09T10:30:52.622Z,2470
2018-05-09T10:32:02.845Z,2525
2018-05-09T10:33:12.915Z,2490
2018-05-09T10:34:23.034Z,2470
2018-05-09T10:35:33.042Z,2540
2018-05-09T10:36:42.523Z,2525
2018-05-09T10:37:52.529Z,2280
2018-05-09T10:39:02.552Z,2280
2018-05-09T10:40:12.337Z,2495
2018-05-09T10:41:22.657Z,2535
2018-05-09T10:42:32.737Z,2435
2018-05-09T10:43:42.760Z,2495
2018-05-09T10:44:52.762Z,2560
2018-05-09T10:46:02.805Z,2535
2018-05-09T10:47:12.821Z,2555
2018-05-09T10:48:22.879Z,2570
2018-05-09T10:49:32.627Z,2555
2018-05-09T10:50:42.771Z,2670
2018-05-09T10:51:52.809Z,2825
2018-05-09T10:53:02.816Z,2780
2018-05-09T10:54:12.585Z,2765
2018-05-09T10:55:22.583Z,2790
2018-05-09T10:56:32.405Z,2630
2018-05-09T10:57:42.182Z,2685
2018-05-09T10:58:51.987Z,2885
2018-05-09T11:00:02.018Z,2900
2018-05-09T11:01:12.132Z,2845
2018-05-09T11:02:22.172Z,2800
2018-05-09T11:03:31.913Z,2755
2018-05-09T11:04:41.924Z,2790
2018-05-09T11:05:52.072Z,2755
2018-05-09T11:07:02.127Z,2655
2018-05-09T11:08:12.182Z,1095
2018-05-09T11:09:22.434Z,1145
2018-05-09T11:10:32.800Z,3080
2018-05-09T11:11:42.809Z,3115
2018-05-09T11:12:52.851Z,3225
2018-05-09T11:14:02.880Z,2780
2018-05-09T11:15:12.749Z,950
2018-05-09T11:16:22.747Z,945
2018-05-09T11:17:32.978Z,1060
2018-05-09T11:18:42.795Z,3485
2018-05-09T11:19:52.814Z,1105
2018-05-09T11:21:02.804Z,1105
2018-05-09T11:22:12.582Z,2930
2018-05-09T11:23:22.034Z,3330
2018-05-09T11:24:32.544Z,3240
2018-05-09T11:25:42.019Z,3115
2018-05-09T11:26:51.788Z,3285
2018-05-09T11:28:01.784Z,3325
2018-05-09T11:29:11.787Z,1505
2018-05-09T11:30:21.767Z,2460
2018-05-09T11:31:31.763Z,2935
2018-05-09T11:32:41.748Z,2185
2018-05-09T11:33:51.767Z,3430
2018-05-09T11:35:01.750Z,3375
2018-05-09T11:36:11.744Z,3160
2018-05-09T11:37:21.958Z,3220
2018-05-09T11:38:31.990Z,3255
2018-05-09T11:39:42.018Z,1880
2018-05-09T11:40:51.767Z,3080
2018-05-09T11:42:01.776Z,1035
2018-05-09T11:43:11.529Z,2915
2018-05-09T11:44:21.525Z,3285
2018-05-09T11:45:31.250Z,3305
2018-05-09T11:46:41.260Z,1565
2018-05-09T11:47:50.731Z,865
2018-05-09T11:49:00.203Z,850
2018-05-09T11:50:10.219Z,935
2018-05-09T11:51:20.215Z,1015
2018-05-09T11:52:29.963Z,970
2018-05-09T11:53:40.238Z,960
2018-05-09T11:54:50.237Z,1010
2018-05-09T11:56:00.237Z,1040
2018-05-09T11:57:10.254Z,1070
2018-05-09T11:58:20.239Z,1085
2018-05-09T11:59:29.716Z,1110
2018-05-09T12:00:39.226Z,1180
2018-05-09T12:01:49.282Z,1320
2018-05-09T12:02:59.008Z,3430
2018-05-09T12:04:08.999Z,2525
2018-05-09T12:05:18.994Z,2325
2018-05-09T12:06:28.734Z,2105
2018-05-09T12:07:38.754Z,1725
2018-05-09T12:08:48.755Z,2315
2018-05-09T12:09:58.773Z,2730
2018-05-09T12:11:08.789Z,3180
2018-05-09T12:12:18.787Z,2240
2018-05-09T12:13:28.788Z,2800
2018-05-09T12:14:38.811Z,1950
2018-05-09T12:15:48.803Z,2565
2018-05-09T12:16:58.826Z,3345
2018-05-09T12:18:08.575Z,1095
2018-05-09T12:19:18.579Z,1825
2018-05-09T12:20:28.581Z,3595
2018-05-09T12:21:38.582Z,1440
2018-05-09T12:22:48.577Z,1295
2018-05-09T12:23:58.321Z,1415
2018-05-09T12:25:08.062Z,1705
2018-05-09T12:26:18.068Z,2305
2018-05-09T12:27:27.795Z,3440
2018-05-09T12:28:37.802Z,3695
2018-05-09T12:29:47.900Z,2070
2018-05-09T12:30:57.624Z,3900
2018-05-09T12:32:07.369Z,3525
2018-05-09T12:33:17.349Z,1325
2018-05-09T12:34:27.085Z,3485
2018-05-09T12:35:37.071Z,3425
2018-05-09T12:36:47.067Z,1475
2018-05-09T12:37:56.836Z,1030
2018-05-09T12:39:06.870Z,3170
2018-05-09T12:40:16.864Z,3150
2018-05-09T12:41:26.616Z,3160
2018-05-09T12:42:36.958Z,3270
2018-05-09T12:43:46.791Z,3410
2018-05-09T12:44:56.533Z,3185
2018-05-09T12:46:06.548Z,2525
2018-05-09T12:47:16.045Z,3220
2018-05-09T12:48:25.961Z,3375
2018-05-09T12:49:35.714Z,3360
2018-05-09T12:50:45.439Z,3380
2018-05-09T12:51:55.170Z,3480
2018-05-09T12:53:05.160Z,3440
2018-05-09T12:54:15.147Z,3475
2018-05-09T12:55:25.136Z,3480
2018-05-09T12:56:35.157Z,3335
2018-05-09T12:57:45.159Z,3210
2018-05-09T12:58:55.183Z,3335
2018-05-09T13:00:05.169Z,3485
2018-05-09T13:01:15.165Z,3525
2018-05-09T13:02:25.170Z,3590
2018-05-09T13:03:35.162Z,3630
2018-05-09T13:04:45.151Z,2595
2018-05-09T13:05:55.149Z,3065
2018-05-09T13:07:05.151Z,3745
2018-05-09T13:08:14.877Z,3550
2018-05-09T13:09:24.606Z,2770
2018-05-09T13:10:34.421Z,1065
2018-05-09T13:11:44.147Z,2570
2018-05-09T13:12:54.161Z,3630
2018-05-09T13:14:04.147Z,1130
2018-05-09T13:15:14.133Z,3490
2018-05-09T13:16:24.132Z,3220
2018-05-09T13:17:33.343Z,1050
2018-05-09T13:18:43.082Z,1090
2018-05-09T13:19:53.165Z,2580
2018-05-09T13:21:03.238Z,3340
2018-05-09T13:22:12.735Z,1255
2018-05-09T13:23:21.946Z,955
2018-05-09T13:24:31.434Z,940
2018-05-09T13:25:41.465Z,2910
2018-05-09T13:26:51.521Z,3095
2018-05-09T13:28:01.278Z,3240
2018-05-09T13:29:11.283Z,3375
2018-05-09T13:30:21.508Z,2550
2018-05-09T13:31:31.510Z,3190
2018-05-09T13:32:41.517Z,3150
2018-05-09T13:33:51.526Z,3295
2018-05-09T13:35:01.261Z,3430
2018-05-09T13:36:10.745Z,3300
2018-05-09T13:37:20.543Z,3070
2018-05-09T13:38:30.279Z,2970
2018-05-09T13:39:40.018Z,3105
2018-05-09T13:40:50.031Z,3055
2018-05-09T13:42:00.035Z,3010
2018-05-09T13:43:10.041Z,3145
2018-05-09T13:44:20.036Z,3275
2018-05-09T13:45:30.045Z,3190
2018-05-09T13:46:40.124Z,3365
2018-05-09T13:47:50.133Z,3320
2018-05-09T13:48:59.876Z,3245
2018-05-09T13:50:09.350Z,3295
2018-05-09T13:51:19.107Z,3225
2018-05-09T13:52:28.841Z,3160
2018-05-09T13:53:38.849Z,3030
2018-05-09T13:54:48.838Z,2855
2018-05-09T13:55:58.572Z,2875
2018-05-09T13:57:08.308Z,2915
2018-05-09T13:58:18.306Z,3340
2018-05-09T13:59:28.328Z,3350
2018-05-09T14:00:38.325Z,3175
2018-05-09T14:01:48.345Z,2925
2018-05-09T14:02:58.094Z,3110
2018-05-09T14:04:07.836Z,3210
2018-05-09T14:05:17.837Z,3250
2018-05-09T14:06:27.839Z,3250
2018-05-09T14:07:37.854Z,3165
2018-05-09T14:08:47.849Z,3150
2018-05-09T14:09:58.271Z,3145
2018-05-09T14:11:07.870Z,3200
2018-05-09T14:12:17.602Z,3240
2018-05-09T14:13:27.625Z,3250
2018-05-09T14:14:37.637Z,3260
2018-05-09T14:15:47.892Z,3225
2018-05-09T14:16:57.904Z,3135
2018-05-09T14:18:07.655Z,3035
2018-05-09T14:19:17.663Z,2995
2018-05-09T14:20:27.688Z,3060
2018-05-09T14:21:37.682Z,3140
2018-05-09T14:22:47.421Z,3175
2018-05-09T14:23:57.177Z,3040
2018-05-09T14:25:06.931Z,2965
2018-05-09T14:26:16.674Z,2950
2018-05-09T14:27:26.637Z,2935
2018-05-09T14:28:36.620Z,2930
2018-05-09T14:29:46.342Z,2770
2018-05-09T14:30:56.073Z,2600
2018-05-09T14:32:06.199Z,2650
2018-05-09T14:33:16.319Z,2785
2018-05-09T14:34:26.313Z,2995
2018-05-09T14:35:36.052Z,2960
2018-05-09T14:36:45.787Z,2930
2018-05-09T14:37:55.537Z,2085
2018-05-09T14:39:05.262Z,1095
2018-05-09T14:40:15.245Z,1020
2018-05-09T14:41:24.707Z,1695
2018-05-09T14:42:34.434Z,2365
2018-05-09T14:43:44.442Z,1515
2018-05-09T14:44:54.198Z,2480
2018-05-09T14:46:03.676Z,2850
2018-05-09T14:47:13.416Z,2825
2018-05-09T14:48:22.900Z,2820
2018-05-09T14:49:32.631Z,2655
2018-05-09T14:50:42.363Z,1660
2018-05-09T14:51:52.113Z,800
2018-05-09T14:53:02.124Z,700
2018-05-09T14:54:12.111Z,675
2018-05-09T14:55:21.847Z,2585
2018-05-09T14:56:31.852Z,2610
2018-05-09T14:57:41.586Z,2505
2018-05-09T14:58:51.311Z,2550
2018-05-09T15:00:01.058Z,2650
2018-05-09T15:01:10.814Z,2670
2018-05-09T15:02:20.839Z,2675
2018-05-09T15:03:30.832Z,2660
2018-05-09T15:04:40.813Z,2235
2018-05-09T15:05:50.549Z,940
2018-05-09T15:07:00.550Z,890
2018-05-09T15:08:10.546Z,940
2018-05-09T15:09:20.557Z,1635
2018-05-09T15:10:30.546Z,2585
2018-05-09T15:11:40.539Z,2500
2018-05-09T15:12:50.273Z,2295
2018-05-09T15:14:00.536Z,2195
2018-05-09T15:15:10.527Z,905
2018-05-09T15:16:20.623Z,2115
2018-05-09T15:17:30.614Z,2320
2018-05-09T15:18:40.353Z,2425
2018-05-09T15:19:50.574Z,2425
2018-05-09T15:21:00.564Z,1835
2018-05-09T15:22:10.561Z,810
2018-05-09T15:23:20.558Z,820
2018-05-09T15:24:30.639Z,835
2018-05-09T15:25:40.654Z,1655
2018-05-09T15:26:50.722Z,1465
2018-05-09T15:28:00.708Z,715
2018-05-09T15:29:10.720Z,695
2018-05-09T15:30:20.746Z,725
2018-05-09T15:31:30.481Z,2035
2018-05-09T15:32:40.580Z,2080
2018-05-09T15:33:50.602Z,2105
2018-05-09T15:35:00.597Z,720
2018-05-09T15:36:10.595Z,710
2018-05-09T15:37:20.584Z,710
2018-05-09T15:38:30.322Z,710
2018-05-09T15:39:40.069Z,745
2018-05-09T15:40:49.808Z,745
2018-05-09T15:41:59.792Z,755
2018-05-09T15:43:09.517Z,1970
2018-05-09T15:44:19.240Z,1995
2018-05-09T15:45:28.978Z,1915
2018-05-09T15:46:38.449Z,1990
2018-05-09T15:47:48.186Z,1870
2018-05-09T15:48:57.659Z,725
2018-05-09T15:50:07.400Z,695
2018-05-09T15:51:17.221Z,720
2018-05-09T15:52:26.701Z,705
2018-05-09T15:53:36.759Z,1060
2018-05-09T15:54:46.236Z,1815
2018-05-09T15:55:55.996Z,1775
2018-05-09T15:57:06.008Z,1250
2018-05-09T15:58:15.479Z,920
2018-05-09T15:59:25.231Z,1000
2018-05-09T16:00:34.968Z,930
2018-05-09T16:01:44.957Z,1715
2018-05-09T16:02:54.935Z,1740